sensor_id;sensor_type;location;lat;lon;timestamp;pressure;altitude;pressure_sealevel;temperature;humidity
76590;BME280;65471;55.908;37.880;2023-08-01T00:02:17;99190.97;;;15.26;91.21
76590;BME280;65471;55.908;37.880;2023-08-01T00:04:44;99196.41;;;15.26;91.09
76590;BME280;65471;55.908;37.880;2023-08-01T00:07:11;99202.66;;;15.26;91.21
76590;BME280;65471;55.908;37.880;2023-08-01T00:09:38;99196.41;;;15.26;91.27
76590;BME280;65471;55.908;37.880;2023-08-01T00:12:05;99204.88;;;15.29;91.33
76590;BME280;65471;55.908;37.880;2023-08-01T00:14:32;99197.78;;;15.28;91.25
76590;BME280;65471;55.908;37.880;2023-08-01T00:16:59;99205.69;;;15.25;91.35
76590;BME280;65471;55.908;37.880;2023-08-01T00:19:27;99196.97;;;15.23;91.35
76590;BME280;65471;55.908;37.880;2023-08-01T00:21:54;99203.50;;;15.22;91.21
76590;BME280;65471;55.908;37.880;2023-08-01T00:24:21;99198.91;;;15.22;91.22
76590;BME280;65471;55.908;37.880;2023-08-01T00:26:48;99198.34;;;15.20;91.22
76590;BME280;65471;55.908;37.880;2023-08-01T00:29:14;99205.16;;;15.17;91.15
76590;BME280;65471;55.908;37.880;2023-08-01T00:31:41;99208.16;;;15.16;91.07
76590;BME280;65471;55.908;37.880;2023-08-01T00:34:08;99213.34;;;15.12;91.06
76590;BME280;65471;55.908;37.880;2023-08-01T00:36:35;99216.06;;;15.07;91.19
76590;BME280;65471;55.908;37.880;2023-08-01T00:39:02;99213.91;;;15.04;91.33
76590;BME280;65471;55.908;37.880;2023-08-01T00:41:29;99209.00;;;15.01;91.47
76590;BME280;65471;55.908;37.880;2023-08-01T00:43:56;99213.91;;;14.99;91.55
76590;BME280;65471;55.908;37.880;2023-08-01T00:46:23;99205.75;;;14.94;91.45
76590;BME280;65471;55.908;37.880;2023-08-01T00:48:51;99205.75;;;14.89;91.43
76590;BME280;65471;55.908;37.880;2023-08-01T00:51:18;99210.94;;;14.85;91.57
76590;BME280;65471;55.908;37.880;2023-08-01T00:53:45;99209.59;;;14.82;91.29
76590;BME280;65471;55.908;37.880;2023-08-01T00:56:13;99213.38;;;14.81;91.48
76590;BME280;65471;55.908;37.880;2023-08-01T00:58:40;99207.94;;;14.81;91.28
76590;BME280;65471;55.908;37.880;2023-08-01T01:01:07;99217.22;;;14.75;91.48
76590;BME280;65471;55.908;37.880;2023-08-01T01:03:34;99208.75;;;14.72;91.56
76590;BME280;65471;55.908;37.880;2023-08-01T01:06:08;99218.28;;;14.69;91.59
76590;BME280;65471;55.908;37.880;2023-08-01T01:08:36;99224.28;;;14.66;91.80
76590;BME280;65471;55.908;37.880;2023-08-01T01:11:03;99222.09;;;14.63;91.87
76590;BME280;65471;55.908;37.880;2023-08-01T01:13:31;99226.97;;;14.61;91.72
76590;BME280;65471;55.908;37.880;2023-08-01T01:15:58;99226.75;;;14.62;91.87
76590;BME280;65471;55.908;37.880;2023-08-01T01:18:25;99225.34;;;14.60;91.78
76590;BME280;65471;55.908;37.880;2023-08-01T01:20:52;99222.63;;;14.60;91.85
76590;BME280;65471;55.908;37.880;2023-08-01T01:23:20;99223.97;;;14.57;91.95
76590;BME280;65471;55.908;37.880;2023-08-01T01:25:51;99233.50;;;14.60;92.01
76590;BME280;65471;55.908;37.880;2023-08-01T01:28:19;99220.97;;;14.59;91.92
76590;BME280;65471;55.908;37.880;2023-08-01T01:30:47;99227.78;;;14.56;91.89
76590;BME280;65471;55.908;37.880;2023-08-01T01:33:15;99216.91;;;14.56;91.80
76590;BME280;65471;55.908;37.880;2023-08-01T01:35:43;99225.34;;;14.55;92.03
76590;BME280;65471;55.908;37.880;2023-08-01T01:38:09;99227.25;;;14.54;92.03
76590;BME280;65471;55.908;37.880;2023-08-01T01:40:37;99216.63;;;14.53;91.99
76590;BME280;65471;55.908;37.880;2023-08-01T01:43:03;99219.09;;;14.54;92.06
76590;BME280;65471;55.908;37.880;2023-08-01T01:45:30;99215.00;;;14.52;92.08
76590;BME280;65471;55.908;37.880;2023-08-01T01:47:57;99222.63;;;14.49;92.13
76590;BME280;65471;55.908;37.880;2023-08-01T01:50:24;99223.72;;;14.48;92.25
76590;BME280;65471;55.908;37.880;2023-08-01T01:52:51;99215.53;;;14.48;92.29
76590;BME280;65471;55.908;37.880;2023-08-01T01:55:18;99214.75;;;14.48;92.20
76590;BME280;65471;55.908;37.880;2023-08-01T01:57:45;99217.69;;;14.46;92.37
76590;BME280;65471;55.908;37.880;2023-08-01T13:39:11;99152.97;;;25.42;52.79
76590;BME280;65471;55.908;37.880;2023-08-01T13:41:38;99158.06;;;25.40;51.50
76590;BME280;65471;55.908;37.880;2023-08-01T13:44:05;99145.25;;;25.35;52.22
76590;BME280;65471;55.908;37.880;2023-08-01T13:46:32;99152.94;;;25.29;52.59
76590;BME280;65471;55.908;37.880;2023-08-01T13:48:59;99146.38;;;25.22;52.79
76590;BME280;65471;55.908;37.880;2023-08-01T13:51:26;99154.69;;;25.46;53.67
76590;BME280;65471;55.908;37.880;2023-08-01T13:53:56;99157.66;;;25.78;53.87
76590;BME280;65471;55.908;37.880;2023-08-01T13:56:26;99152.72;;;25.72;54.83
76590;BME280;65471;55.908;37.880;2023-08-01T13:58:53;99155.00;;;25.82;54.36
76590;BME280;65471;55.908;37.880;2023-08-01T14:01:20;99156.56;;;26.08;53.74
76590;BME280;65471;55.908;37.880;2023-08-01T14:03:47;99155.41;;;25.96;53.87
76590;BME280;65471;55.908;37.880;2023-08-01T14:06:14;99154.22;;;25.69;55.46
76590;BME280;65471;55.908;37.880;2023-08-01T14:08:41;99146.38;;;25.46;56.45
76590;BME280;65471;55.908;37.880;2023-08-01T14:11:09;99142.38;;;25.31;57.66
76590;BME280;65471;55.908;37.880;2023-08-01T14:13:37;99158.00;;;25.15;58.68
76590;BME280;65471;55.908;37.880;2023-08-01T14:16:04;99155.13;;;24.99;59.13
76590;BME280;65471;55.908;37.880;2023-08-01T14:18:31;99160.03;;;24.81;60.05
76590;BME280;65471;55.908;37.880;2023-08-01T14:20:58;99155.28;;;24.69;61.22
76590;BME280;65471;55.908;37.880;2023-08-01T14:23:25;99154.31;;;24.53;62.86
76590;BME280;65471;55.908;37.880;2023-08-01T14:25:51;99160.91;;;24.39;64.03
76590;BME280;65471;55.908;37.880;2023-08-01T14:28:18;99151.56;;;24.32;63.46
76590;BME280;65471;55.908;37.880;2023-08-01T14:30:45;99148.00;;;24.31;63.67
76590;BME280;65471;55.908;37.880;2023-08-01T14:33:12;99139.44;;;24.24;63.59
76590;BME280;65471;55.908;37.880;2023-08-01T14:35:41;99140.47;;;24.19;63.86
76590;BME280;65471;55.908;37.880;2023-08-01T14:38:09;99149.28;;;24.12;64.50
76590;BME280;65471;55.908;37.880;2023-08-01T14:40:36;99150.13;;;24.13;63.08
76590;BME280;65471;55.908;37.880;2023-08-01T14:43:03;99146.34;;;24.18;63.52
76590;BME280;65471;55.908;37.880;2023-08-01T14:45:30;99141.34;;;24.11;64.59
76590;BME280;65471;55.908;37.880;2023-08-01T14:47:56;99147.63;;;23.99;65.69
76590;BME280;65471;55.908;37.880;2023-08-01T14:50:23;99138.44;;;23.86;66.29
76590;BME280;65471;55.908;37.880;2023-08-01T14:52:50;99137.69;;;23.77;67.06
76590;BME280;65471;55.908;37.880;2023-08-01T14:55:18;99134.66;;;23.70;67.03
76590;BME280;65471;55.908;37.880;2023-08-01T14:57:45;99136.16;;;23.67;67.40
76590;BME280;65471;55.908;37.880;2023-08-01T15:00:13;99149.47;;;23.65;67.76
76590;BME280;65471;55.908;37.880;2023-08-01T15:02:41;99149.09;;;23.46;67.97
76590;BME280;65471;55.908;37.880;2023-08-01T15:05:08;99145.84;;;23.43;68.00
76590;BME280;65471;55.908;37.880;2023-08-01T15:07:35;99147.00;;;23.42;68.54
76590;BME280;65471;55.908;37.880;2023-08-01T15:10:06;99141.69;;;23.37;68.62
76590;BME280;65471;55.908;37.880;2023-08-01T15:12:33;99139.44;;;23.31;69.43
76590;BME280;65471;55.908;37.880;2023-08-01T15:15:00;99147.88;;;23.25;69.90
76590;BME280;65471;55.908;37.880;2023-08-01T15:17:27;99143.84;;;23.23;69.31
76590;BME280;65471;55.908;37.880;2023-08-01T15:19:54;99144.84;;;23.18;69.60
76590;BME280;65471;55.908;37.880;2023-08-01T15:22:21;99148.59;;;23.14;70.12
76590;BME280;65471;55.908;37.880;2023-08-01T15:24:48;99149.91;;;23.07;70.30
76590;BME280;65471;55.908;37.880;2023-08-01T15:27:15;99142.94;;;23.01;71.43
76590;BME280;65471;55.908;37.880;2023-08-01T15:29:45;99139.88;;;22.94;71.81
76590;BME280;65471;55.908;37.880;2023-08-01T15:32:12;99140.72;;;22.86;72.13
76590;BME280;65471;55.908;37.880;2023-08-01T15:34:39;99145.59;;;22.80;71.70
76590;BME280;65471;55.908;37.880;2023-08-01T15:37:08;99146.13;;;22.73;72.01
76590;BME280;65471;55.908;37.880;2023-08-01T15:39:36;99142.41;;;22.69;72.46
76590;BME280;65471;55.908;37.880;2023-08-01T15:42:03;99147.75;;;22.66;72.61
76590;BME280;65471;55.908;37.880;2023-08-01T15:44:30;99153.13;;;22.62;72.91
76590;BME280;65471;55.908;37.880;2023-08-01T15:46:58;99161.56;;;22.57;72.86
76590;BME280;65471;55.908;37.880;2023-08-01T15:49:25;99162.22;;;22.54;72.90
76590;BME280;65471;55.908;37.880;2023-08-01T15:51:52;99162.88;;;22.51;73.31
76590;BME280;65471;55.908;37.880;2023-08-01T15:54:19;99166.75;;;22.50;72.82
76590;BME280;65471;55.908;37.880;2023-08-01T15:56:46;99169.03;;;22.48;73.06
76590;BME280;65471;55.908;37.880;2023-08-01T15:59:13;99169.03;;;22.48;73.14
76590;BME280;65471;55.908;37.880;2023-08-01T16:01:39;99168.53;;;22.46;73.13
76590;BME280;65471;55.908;37.880;2023-08-01T16:04:09;99167.25;;;22.43;73.34
76590;BME280;65471;55.908;37.880;2023-08-01T16:06:36;99169.34;;;22.37;73.68
76590;BME280;65471;55.908;37.880;2023-08-01T16:09:03;99177.16;;;22.35;73.84
76590;BME280;65471;55.908;37.880;2023-08-01T16:11:30;99166.75;;;22.32;73.75
76590;BME280;65471;55.908;37.880;2023-08-01T16:13:57;99180.34;;;22.29;74.01
76590;BME280;65471;55.908;37.880;2023-08-01T16:16:26;99170.31;;;22.24;74.05
76590;BME280;65471;55.908;37.880;2023-08-01T16:18:53;99180.84;;;22.22;74.33
76590;BME280;65471;55.908;37.880;2023-08-01T16:21:20;99179.06;;;22.17;74.28
76590;BME280;65471;55.908;37.880;2023-08-01T16:23:46;99180.03;;;22.13;74.66
76590;BME280;65471;55.908;37.880;2023-08-01T16:26:13;99184.09;;;22.06;75.19
76590;BME280;65471;55.908;37.880;2023-08-01T16:28:40;99180.34;;;22.02;75.08
76590;BME280;65471;55.908;37.880;2023-08-01T16:31:07;99191.50;;;21.97;75.66
76590;BME280;65471;55.908;37.880;2023-08-01T16:33:34;99182.78;;;21.95;75.84
76590;BME280;65471;55.908;37.880;2023-08-01T16:36:01;99186.97;;;21.93;75.66
76590;BME280;65471;55.908;37.880;2023-08-01T16:38:28;99187.97;;;21.88;76.03
76590;BME280;65471;55.908;37.880;2023-08-01T16:40:57;99183.09;;;21.85;76.40
76590;BME280;65471;55.908;37.880;2023-08-01T16:43:24;99183.56;;;21.78;76.47
76590;BME280;65471;55.908;37.880;2023-08-01T16:45:51;99184.53;;;21.74;76.60
76590;BME280;65471;55.908;37.880;2023-08-01T16:48:18;99186.31;;;21.69;76.99
76590;BME280;65471;55.908;37.880;2023-08-01T16:50:45;99193.56;;;21.65;77.53
76590;BME280;65471;55.908;37.880;2023-08-01T16:53:12;99185.47;;;21.60;77.51
76590;BME280;65471;55.908;37.880;2023-08-01T16:55:38;99184.47;;;21.56;77.68
76590;BME280;65471;55.908;37.880;2023-08-01T16:58:06;99183.78;;;21.50;77.85
76590;BME280;65471;55.908;37.880;2023-08-01T17:00:33;99197.69;;;21.45;77.86
76590;BME280;65471;55.908;37.880;2023-08-01T17:03:00;99188.47;;;21.41;78.43
76590;BME280;65471;55.908;37.880;2023-08-01T17:05:27;99185.53;;;21.37;78.36
76590;BME280;65471;55.908;37.880;2023-08-01T17:07:54;99183.72;;;21.33;78.63
76590;BME280;65471;55.908;37.880;2023-08-01T17:10:21;99191.63;;;21.26;79.05
76590;BME280;65471;55.908;37.880;2023-08-01T17:12:48;99192.72;;;21.16;79.61
76590;BME280;65471;55.908;37.880;2023-08-01T17:15:15;99190.13;;;21.11;79.61
76590;BME280;65471;55.908;37.880;2023-08-01T17:17:42;99191.56;;;21.08;79.54
76590;BME280;65471;55.908;37.880;2023-08-01T17:20:09;99202.38;;;21.04;78.90
76590;BME280;65471;55.908;37.880;2023-08-01T17:22:36;99206.28;;;21.03;78.70
76590;BME280;65471;55.908;37.880;2023-08-01T17:25:03;99211.75;;;21.03;78.67
76590;BME280;65471;55.908;37.880;2023-08-01T17:27:31;99209.78;;;20.95;79.25
76590;BME280;65471;55.908;37.880;2023-08-01T17:29:58;99218.94;;;20.91;78.89
76590;BME280;65471;55.908;37.880;2023-08-01T17:32:27;99223.16;;;20.88;79.10
76590;BME280;65471;55.908;37.880;2023-08-01T17:34:56;99219.88;;;20.86;79.14
76590;BME280;65471;55.908;37.880;2023-08-01T17:37:23;99222.16;;;20.84;79.55
76590;BME280;65471;55.908;37.880;2023-08-01T17:39:50;99226.97;;;20.78;79.59
76590;BME280;65471;55.908;37.880;2023-08-01T17:42:17;99223.53;;;20.73;79.49
76590;BME280;65471;55.908;37.880;2023-08-01T17:44:44;99223.94;;;20.66;79.86
76590;BME280;65471;55.908;37.880;2023-08-01T17:47:11;99232.59;;;20.59;79.62
76590;BME280;65471;55.908;37.880;2023-08-01T17:49:39;99237.72;;;20.52;79.87
76590;BME280;65471;55.908;37.880;2023-08-01T17:52:06;99229.63;;;20.47;79.63
76590;BME280;65471;55.908;37.880;2023-08-01T17:54:33;99236.06;;;20.42;79.63
76590;BME280;65471;55.908;37.880;2023-08-01T17:57:00;99241.34;;;20.39;79.95
76590;BME280;65471;55.908;37.880;2023-08-01T17:59:27;99241.13;;;20.35;80.02
76590;BME280;65471;55.908;37.880;2023-08-01T18:01:54;99240.16;;;20.31;80.08
76590;BME280;65471;55.908;37.880;2023-08-01T18:04:21;99244.13;;;20.25;80.20
76590;BME280;65471;55.908;37.880;2023-08-01T18:06:49;99245.84;;;20.21;80.29
76590;BME280;65471;55.908;37.880;2023-08-01T18:09:17;99237.75;;;20.15;80.53
76590;BME280;65471;55.908;37.880;2023-08-01T18:11:47;99247.91;;;20.15;80.34
76590;BME280;65471;55.908;37.880;2023-08-01T18:14:14;99252.38;;;20.11;80.54
76590;BME280;65471;55.908;37.880;2023-08-01T18:16:41;99246.22;;;20.05;80.43
76590;BME280;65471;55.908;37.880;2023-08-01T18:19:08;99250.38;;;20.03;80.69
76590;BME280;65471;55.908;37.880;2023-08-01T18:21:36;99243.25;;;20.02;80.67
76590;BME280;65471;55.908;37.880;2023-08-01T18:24:03;99251.00;;;19.99;80.86
76590;BME280;65471;55.908;37.880;2023-08-01T18:26:30;99253.84;;;19.94;81.19
76590;BME280;65471;55.908;37.880;2023-08-01T18:28:57;99243.81;;;19.90;81.56
76590;BME280;65471;55.908;37.880;2023-08-01T18:31:24;99251.50;;;19.88;81.59
76590;BME280;65471;55.908;37.880;2023-08-01T18:33:51;99242.25;;;19.83;81.51
76590;BME280;65471;55.908;37.880;2023-08-01T18:36:20;99239.84;;;19.82;81.65
76590;BME280;65471;55.908;37.880;2023-08-01T18:38:51;99249.47;;;19.79;81.76
76590;BME280;65471;55.908;37.880;2023-08-01T18:41:18;99242.16;;;19.75;81.99
76590;BME280;65471;55.908;37.880;2023-08-01T18:43:46;99246.44;;;19.67;82.24
76590;BME280;65471;55.908;37.880;2023-08-01T18:46:14;99245.09;;;19.64;82.38
76590;BME280;65471;55.908;37.880;2023-08-01T18:48:41;99256.06;;;19.64;82.39
76590;BME280;65471;55.908;37.880;2023-08-01T18:51:19;99250.59;;;19.64;82.41
76590;BME280;65471;55.908;37.880;2023-08-01T18:53:47;99256.78;;;19.56;82.71
76590;BME280;65471;55.908;37.880;2023-08-01T18:56:15;99253.00;;;19.52;82.74
76590;BME280;65471;55.908;37.880;2023-08-01T18:58:45;99239.44;;;19.47;82.80
76590;BME280;65471;55.908;37.880;2023-08-01T19:01:22;99238.41;;;19.43;82.98
76590;BME280;65471;55.908;37.880;2023-08-01T19:03:56;99240.44;;;19.37;83.15
76590;BME280;65471;55.908;37.880;2023-08-01T19:06:25;99238.78;;;19.36;83.45
76590;BME280;65471;55.908;37.880;2023-08-01T19:08:53;99241.03;;;19.34;83.55
76590;BME280;65471;55.908;37.880;2023-08-01T19:11:42;99239.81;;;19.26;83.71
76590;BME280;65471;55.908;37.880;2023-08-01T19:14:09;99245.09;;;19.23;83.80
76590;BME280;65471;55.908;37.880;2023-08-01T19:16:36;99241.81;;;19.21;83.90
76590;BME280;65471;55.908;37.880;2023-08-01T19:19:03;99245.16;;;19.18;83.96
76590;BME280;65471;55.908;37.880;2023-08-01T19:21:30;99248.22;;;19.16;83.97
76590;BME280;65471;55.908;37.880;2023-08-01T19:23:57;99246.09;;;19.13;84.20
76590;BME280;65471;55.908;37.880;2023-08-01T19:26:24;99252.16;;;19.10;84.25
76590;BME280;65471;55.908;37.880;2023-08-01T19:28:51;99251.16;;;19.06;84.37
76590;BME280;65471;55.908;37.880;2023-08-01T19:31:18;99250.13;;;19.02;84.51
76590;BME280;65471;55.908;37.880;2023-08-01T19:33:45;99256.41;;;19.02;84.41
76590;BME280;65471;55.908;37.880;2023-08-01T19:36:12;99248.19;;;19.02;84.48
76590;BME280;65471;55.908;37.880;2023-08-01T19:38:39;99251.81;;;18.97;84.39
76590;BME280;65471;55.908;37.880;2023-08-01T19:41:06;99252.44;;;18.94;84.62
76590;BME280;65471;55.908;37.880;2023-08-01T19:43:34;99240.16;;;18.92;84.58
76590;BME280;65471;55.908;37.880;2023-08-01T19:46:01;99254.44;;;18.89;84.77
76590;BME280;65471;55.908;37.880;2023-08-01T19:48:28;99245.69;;;18.87;84.78
76590;BME280;65471;55.908;37.880;2023-08-01T19:50:55;99259.16;;;18.83;84.95
76590;BME280;65471;55.908;37.880;2023-08-01T19:53:22;99249.31;;;18.82;85.01
76590;BME280;65471;55.908;37.880;2023-08-01T19:55:51;99259.47;;;18.82;85.17
76590;BME280;65471;55.908;37.880;2023-08-01T19:58:19;99259.53;;;18.76;85.09
76590;BME280;65471;55.908;37.880;2023-08-01T20:00:46;99256.59;;;18.73;85.39
76590;BME280;65471;55.908;37.880;2023-08-01T20:03:17;99258.81;;;18.71;85.47
76590;BME280;65471;55.908;37.880;2023-08-01T20:05:44;99262.94;;;18.68;85.36
76590;BME280;65471;55.908;37.880;2023-08-01T20:08:12;99276.44;;;18.65;85.69
76590;BME280;65471;55.908;37.880;2023-08-01T20:10:39;99270.44;;;18.62;85.98
76590;BME280;65471;55.908;37.880;2023-08-01T20:13:06;99274.31;;;18.61;86.16
76590;BME280;65471;55.908;37.880;2023-08-01T20:15:33;99271.03;;;18.59;86.30
76590;BME280;65471;55.908;37.880;2023-08-01T20:17:59;99266.16;;;18.56;86.44
76590;BME280;65471;55.908;37.880;2023-08-01T20:20:26;99273.03;;;18.54;86.55
76590;BME280;65471;55.908;37.880;2023-08-01T20:22:53;99270.09;;;18.50;86.81
76590;BME280;65471;55.908;37.880;2023-08-01T20:25:20;99272.28;;;18.48;86.88
76590;BME280;65471;55.908;37.880;2023-08-01T20:27:47;99281.66;;;18.47;86.97
76590;BME280;65471;55.908;37.880;2023-08-01T20:30:14;99280.81;;;18.46;87.15
76590;BME280;65471;55.908;37.880;2023-08-01T20:32:41;99277.28;;;18.46;87.12
76590;BME280;65471;55.908;37.880;2023-08-01T20:35:11;99275.63;;;18.45;87.11
76590;BME280;65471;55.908;37.880;2023-08-01T20:37:39;99282.50;;;18.42;87.28
76590;BME280;65471;55.908;37.880;2023-08-01T20:40:07;99291.84;;;18.41;87.26
76590;BME280;65471;55.908;37.880;2023-08-01T20:42:36;99289.41;;;18.40;87.27
76590;BME280;65471;55.908;37.880;2023-08-01T20:45:04;99289.97;;;18.37;87.39
76590;BME280;65471;55.908;37.880;2023-08-01T20:47:31;99286.50;;;18.31;87.52
76590;BME280;65471;55.908;37.880;2023-08-01T20:49:58;99289.03;;;18.27;87.44
76590;BME280;65471;55.908;37.880;2023-08-01T20:52:29;99293.66;;;18.27;87.76
76590;BME280;65471;55.908;37.880;2023-08-01T20:54:56;99292.34;;;18.24;87.66
76590;BME280;65471;55.908;37.880;2023-08-01T20:57:23;99298.44;;;18.21;87.96
76590;BME280;65471;55.908;37.880;2023-08-01T20:59:50;99296.25;;;18.18;88.19
76590;BME280;65471;55.908;37.880;2023-08-01T21:02:17;99296.84;;;18.15;88.33
76590;BME280;65471;55.908;37.880;2023-08-01T21:04:44;99296.63;;;18.11;88.48
76590;BME280;65471;55.908;37.880;2023-08-01T21:07:11;99293.06;;;18.11;88.63
76590;BME280;65471;55.908;37.880;2023-08-01T21:09:41;99302.41;;;18.10;88.65
76590;BME280;65471;55.908;37.880;2023-08-01T21:12:08;99300.75;;;18.09;88.57
76590;BME280;65471;55.908;37.880;2023-08-01T21:14:35;99297.28;;;18.03;88.58
76590;BME280;65471;55.908;37.880;2023-08-01T21:17:02;99298.66;;;18.01;88.86
76590;BME280;65471;55.908;37.880;2023-08-01T21:19:29;99298.47;;;17.97;88.98
76590;BME280;65471;55.908;37.880;2023-08-01T21:21:56;99301.47;;;17.96;88.96
76590;BME280;65471;55.908;37.880;2023-08-01T21:24:23;99293.53;;;17.94;89.14
76590;BME280;65471;55.908;37.880;2023-08-01T21:26:50;99289.75;;;17.90;89.25
76590;BME280;65471;55.908;37.880;2023-08-01T21:29:17;99293.91;;;17.87;89.24
76590;BME280;65471;55.908;37.880;2023-08-01T21:31:44;99291.47;;;17.86;89.32
76590;BME280;65471;55.908;37.880;2023-08-01T21:34:11;99292.84;;;17.83;89.19
76590;BME280;65471;55.908;37.880;2023-08-01T21:36:38;99288.78;;;17.81;89.50
76590;BME280;65471;55.908;37.880;2023-08-01T21:39:05;99298.38;;;17.78;89.79
76590;BME280;65471;55.908;37.880;2023-08-01T21:41:32;99293.19;;;17.76;89.49
76590;BME280;65471;55.908;37.880;2023-08-01T21:43:59;99289.94;;;17.74;89.64
76590;BME280;65471;55.908;37.880;2023-08-01T21:46:27;99284.47;;;17.74;89.73
76590;BME280;65471;55.908;37.880;2023-08-01T21:48:54;99285.28;;;17.75;89.66
76590;BME280;65471;55.908;37.880;2023-08-01T21:51:22;99285.56;;;17.73;89.41
76590;BME280;65471;55.908;37.880;2023-08-01T21:53:49;99285.31;;;17.70;89.42
76590;BME280;65471;55.908;37.880;2023-08-01T21:56:16;99285.41;;;17.65;89.70
76590;BME280;65471;55.908;37.880;2023-08-01T21:58:43;99289.22;;;17.64;89.59
76590;BME280;65471;55.908;37.880;2023-08-01T22:01:10;99287.59;;;17.63;89.56
76590;BME280;65471;55.908;37.880;2023-08-01T22:03:37;99285.44;;;17.59;89.77
76590;BME280;65471;55.908;37.880;2023-08-01T22:06:04;99284.94;;;17.57;89.69
76590;BME280;65471;55.908;37.880;2023-08-01T22:08:32;99289.34;;;17.53;89.98
76590;BME280;65471;55.908;37.880;2023-08-01T22:10:59;99285.28;;;17.51;90.17
76590;BME280;65471;55.908;37.880;2023-08-01T22:13:27;99285.56;;;17.49;90.05
76590;BME280;65471;55.908;37.880;2023-08-01T22:15:54;99282.59;;;17.46;90.20
76590;BME280;65471;55.908;37.880;2023-08-01T22:18:21;99290.56;;;17.42;90.33
76590;BME280;65471;55.908;37.880;2023-08-01T22:20:55;99294.94;;;17.43;90.54
76590;BME280;65471;55.908;37.880;2023-08-01T22:23:23;99290.03;;;17.40;90.58
76590;BME280;65471;55.908;37.880;2023-08-01T22:25:51;99280.81;;;17.36;90.63
76590;BME280;65471;55.908;37.880;2023-08-01T22:28:19;99269.09;;;17.30;90.78
76590;BME280;65471;55.908;37.880;2023-08-01T22:30:47;99283.84;;;17.29;90.84
76590;BME280;65471;55.908;37.880;2023-08-01T22:33:15;99289.97;;;17.16;90.85
76590;BME280;65471;55.908;37.880;2023-08-01T22:35:42;99291.91;;;17.15;91.11
76590;BME280;65471;55.908;37.880;2023-08-01T22:38:09;99289.19;;;17.15;90.95
76590;BME280;65471;55.908;37.880;2023-08-01T22:40:36;99291.09;;;17.15;91.03
76590;BME280;65471;55.908;37.880;2023-08-01T22:43:03;99288.13;;;17.11;91.05
76590;BME280;65471;55.908;37.880;2023-08-01T22:45:31;99285.38;;;17.11;91.21
76590;BME280;65471;55.908;37.880;2023-08-01T22:47:59;99283.75;;;17.10;91.14
76590;BME280;65471;55.908;37.880;2023-08-01T22:50:26;99284.88;;;17.09;91.41
76590;BME280;65471;55.908;37.880;2023-08-01T22:52:55;99289.50;;;17.08;91.30
76590;BME280;65471;55.908;37.880;2023-08-01T22:55:22;99285.16;;;17.07;91.48
76590;BME280;65471;55.908;37.880;2023-08-01T22:57:51;99287.63;;;17.04;91.43
76590;BME280;65471;55.908;37.880;2023-08-01T23:00:18;99289.84;;;17.02;91.54
76590;BME280;65471;55.908;37.880;2023-08-01T23:02:45;99286.00;;;17.03;91.53
76590;BME280;65471;55.908;37.880;2023-08-01T23:05:12;99293.09;;;17.04;91.61
76590;BME280;65471;55.908;37.880;2023-08-01T23:07:40;99298.28;;;17.05;91.49
76590;BME280;65471;55.908;37.880;2023-08-01T23:10:07;99297.75;;;17.03;91.60
76590;BME280;65471;55.908;37.880;2023-08-01T23:12:34;99300.78;;;17.02;91.64
76590;BME280;65471;55.908;37.880;2023-08-01T23:15:02;99299.94;;;17.01;91.53
76590;BME280;65471;55.908;37.880;2023-08-01T23:17:35;99295.06;;;16.98;91.70
76590;BME280;65471;55.908;37.880;2023-08-01T23:20:04;99293.41;;;16.97;91.98
76590;BME280;65471;55.908;37.880;2023-08-01T23:22:32;99301.38;;;16.94;91.95
76590;BME280;65471;55.908;37.880;2023-08-01T23:25:00;99300.63;;;16.88;92.07
76590;BME280;65471;55.908;37.880;2023-08-01T23:27:31;99299.78;;;16.87;92.12
76590;BME280;65471;55.908;37.880;2023-08-01T23:29:58;99295.97;;;16.88;92.07
76590;BME280;65471;55.908;37.880;2023-08-01T23:32:26;99299.78;;;16.87;91.97
76590;BME280;65471;55.908;37.880;2023-08-01T23:34:53;99296.56;;;16.80;91.95
76590;BME280;65471;55.908;37.880;2023-08-01T23:37:20;99292.75;;;16.76;92.01
76590;BME280;65471;55.908;37.880;2023-08-01T23:39:47;99285.94;;;16.73;92.10
76590;BME280;65471;55.908;37.880;2023-08-01T23:42:14;99282.38;;;16.73;92.19
76590;BME280;65471;55.908;37.880;2023-08-01T23:44:41;99284.56;;;16.76;91.99
76590;BME280;65471;55.908;37.880;2023-08-01T23:47:08;99281.84;;;16.76;92.08
76590;BME280;65471;55.908;37.880;2023-08-01T23:49:35;99290.31;;;16.74;92.13
76590;BME280;65471;55.908;37.880;2023-08-01T23:52:02;99279.66;;;16.73;91.90
76590;BME280;65471;55.908;37.880;2023-08-01T23:54:29;99278.84;;;16.72;92.31
76590;BME280;65471;55.908;37.880;2023-08-01T23:56:56;99281.88;;;16.71;92.19
76590;BME280;65471;55.908;37.880;2023-08-01T23:59:23;99274.25;;;16.68;92.25
